sensor_id;sensor_type;location;lat;lon;timestamp;temperature;humidity
78490;DHT22;67776;52.012;4.736;2023-07-24T00:00:47;18.37;85.89
78490;DHT22;67776;52.012;4.736;2023-07-24T00:03:12;18.33;86.04
78490;DHT22;67776;52.012;4.736;2023-07-24T00:05:37;18.35;86.33
78490;DHT22;67776;52.012;4.736;2023-07-24T00:08:03;18.25;87.21
78490;DHT22;67776;52.012;4.736;2023-07-24T00:10:28;18.20;86.96
78490;DHT22;67776;52.012;4.736;2023-07-24T00:12:54;18.27;86.88
78490;DHT22;67776;52.012;4.736;2023-07-24T00:15:19;18.30;87.31
78490;DHT22;67776;52.012;4.736;2023-07-24T00:17:45;18.13;87.69
78490;DHT22;67776;52.012;4.736;2023-07-24T00:20:10;18.21;87.46
78490;DHT22;67776;52.012;4.736;2023-07-24T00:22:36;18.21;87.61
78490;DHT22;67776;52.012;4.736;2023-07-24T00:25:01;18.20;87.11
78490;DHT22;67776;52.012;4.736;2023-07-24T00:27:26;18.27;86.50
78490;DHT22;67776;52.012;4.736;2023-07-24T00:29:52;18.15;86.80
78490;DHT22;67776;52.012;4.736;2023-07-24T00:32:18;18.08;87.71
78490;DHT22;67776;52.012;4.736;2023-07-24T00:34:46;18.14;86.87
78490;DHT22;67776;52.012;4.736;2023-07-24T00:37:12;18.01;88.01
78490;DHT22;67776;52.012;4.736;2023-07-24T00:39:37;17.97;87.88
78490;DHT22;67776;52.012;4.736;2023-07-24T00:42:02;18.06;87.59
78490;DHT22;67776;52.012;4.736;2023-07-24T00:44:28;17.94;88.58
78490;DHT22;67776;52.012;4.736;2023-07-24T00:46:54;17.93;88.23
78490;DHT22;67776;52.012;4.736;2023-07-24T00:49:20;18.00;87.37
78490;DHT22;67776;52.012;4.736;2023-07-24T00:51:46;17.96;88.04
78490;DHT22;67776;52.012;4.736;2023-07-24T00:54:16;18.03;87.41
78490;DHT22;67776;52.012;4.736;2023-07-24T00:56:43;18.07;87.34
78490;DHT22;67776;52.012;4.736;2023-07-24T00:59:09;17.97;88.33
78490;DHT22;67776;52.012;4.736;2023-07-24T01:01:36;18.06;87.62
78490;DHT22;67776;52.012;4.736;2023-07-24T01:04:03;18.00;88.23
78490;DHT22;67776;52.012;4.736;2023-07-24T01:06:29;18.07;87.82
78490;DHT22;67776;52.012;4.736;2023-07-24T01:08:55;18.11;87.85
78490;DHT22;67776;52.012;4.736;2023-07-24T01:11:56;18.08;88.01
78490;DHT22;67776;52.012;4.736;2023-07-24T01:14:27;18.01;88.78
78490;DHT22;67776;52.012;4.736;2023-07-24T01:16:55;17.96;88.81
78490;DHT22;67776;52.012;4.736;2023-07-24T01:19:36;17.91;89.47
78490;DHT22;67776;52.012;4.736;2023-07-24T01:22:22;17.96;89.25
78490;DHT22;67776;52.012;4.736;2023-07-24T01:27:33;17.94;89.01
78490;DHT22;67776;52.012;4.736;2023-07-24T01:29:59;17.90;89.66
78490;DHT22;67776;52.012;4.736;2023-07-24T01:32:24;17.87;89.30
78490;DHT22;67776;52.012;4.736;2023-07-24T01:34:51;17.90;89.21
78490;DHT22;67776;52.012;4.736;2023-07-24T01:37:16;17.98;88.89
78490;DHT22;67776;52.012;4.736;2023-07-24T01:39:47;17.97;89.06
78490;DHT22;67776;52.012;4.736;2023-07-24T01:42:16;17.98;88.84
78490;DHT22;67776;52.012;4.736;2023-07-24T01:44:42;17.97;88.92
78490;DHT22;67776;52.012;4.736;2023-07-24T01:47:07;17.96;88.79
78490;DHT22;67776;52.012;4.736;2023-07-24T01:49:33;17.90;88.82
78490;DHT22;67776;52.012;4.736;2023-07-24T01:51:58;17.85;89.38
78490;DHT22;67776;52.012;4.736;2023-07-24T01:54:24;17.79;89.45
78490;DHT22;67776;52.012;4.736;2023-07-24T01:56:49;17.91;88.92
78490;DHT22;67776;52.012;4.736;2023-07-24T01:59:14;17.86;89.39
78490;DHT22;67776;52.012;4.736;2023-07-24T02:01:40;17.91;89.14
78490;DHT22;67776;52.012;4.736;2023-07-24T02:04:06;17.94;89.09
78490;DHT22;67776;52.012;4.736;2023-07-24T02:06:31;17.94;89.22
78490;DHT22;67776;52.012;4.736;2023-07-24T02:08:56;17.82;89.81
78490;DHT22;67776;52.012;4.736;2023-07-24T02:11:22;17.86;89.35
78490;DHT22;67776;52.012;4.736;2023-07-24T02:13:47;17.97;88.68
78490;DHT22;67776;52.012;4.736;2023-07-24T02:16:16;17.98;88.75
78490;DHT22;67776;52.012;4.736;2023-07-24T02:18:42;17.90;89.56
78490;DHT22;67776;52.012;4.736;2023-07-24T02:21:09;17.97;89.00
78490;DHT22;67776;52.012;4.736;2023-07-24T02:23:35;17.78;90.01
78490;DHT22;67776;52.012;4.736;2023-07-24T02:26:00;17.78;90.12
78490;DHT22;67776;52.012;4.736;2023-07-24T02:28:26;17.86;89.67
78490;DHT22;67776;52.012;4.736;2023-07-24T02:30:52;17.79;89.96
78490;DHT22;67776;52.012;4.736;2023-07-24T02:33:21;17.76;90.51
78490;DHT22;67776;52.012;4.736;2023-07-24T02:35:46;17.70;91.20
78490;DHT22;67776;52.012;4.736;2023-07-24T02:38:12;17.73;90.31
78490;DHT22;67776;52.012;4.736;2023-07-24T02:40:40;17.63;90.62
78490;DHT22;67776;52.012;4.736;2023-07-24T02:43:06;17.65;90.53
78490;DHT22;67776;52.012;4.736;2023-07-24T02:45:37;17.63;91.02
78490;DHT22;67776;52.012;4.736;2023-07-24T02:48:03;17.59;90.67
78490;DHT22;67776;52.012;4.736;2023-07-24T02:50:28;17.46;91.19
78490;DHT22;67776;52.012;4.736;2023-07-24T02:52:54;17.46;90.63
78490;DHT22;67776;52.012;4.736;2023-07-24T02:55:20;17.49;90.48
78490;DHT22;67776;52.012;4.736;2023-07-24T02:57:48;17.55;90.23
78490;DHT22;67776;52.012;4.736;2023-07-24T03:00:14;17.58;89.92
78490;DHT22;67776;52.012;4.736;2023-07-24T03:02:40;17.58;90.63
78490;DHT22;67776;52.012;4.736;2023-07-24T03:05:05;17.52;89.99
78490;DHT22;67776;52.012;4.736;2023-07-24T03:07:31;17.58;89.92
78490;DHT22;67776;52.012;4.736;2023-07-24T03:09:57;17.56;89.23
78490;DHT22;67776;52.012;4.736;2023-07-24T03:12:23;17.43;90.36
78490;DHT22;67776;52.012;4.736;2023-07-24T03:14:48;17.55;89.13
78490;DHT22;67776;52.012;4.736;2023-07-24T03:17:13;17.56;89.39
78490;DHT22;67776;52.012;4.736;2023-07-24T03:19:40;17.53;90.25
78490;DHT22;67776;52.012;4.736;2023-07-24T03:22:05;17.55;89.27
78490;DHT22;67776;52.012;4.736;2023-07-24T03:24:31;17.43;90.42
78490;DHT22;67776;52.012;4.736;2023-07-24T03:26:56;17.41;90.01
78490;DHT22;67776;52.012;4.736;2023-07-24T03:29:22;17.46;90.24
78490;DHT22;67776;52.012;4.736;2023-07-24T03:31:47;17.43;89.87
78490;DHT22;67776;52.012;4.736;2023-07-24T03:34:12;17.41;90.41
78490;DHT22;67776;52.012;4.736;2023-07-24T03:36:41;17.39;90.48
78490;DHT22;67776;52.012;4.736;2023-07-24T03:39:09;17.39;90.20
78490;DHT22;67776;52.012;4.736;2023-07-24T03:41:35;17.43;90.31
78490;DHT22;67776;52.012;4.736;2023-07-24T03:44:00;17.46;90.04
78490;DHT22;67776;52.012;4.736;2023-07-24T03:46:25;17.45;89.56
78490;DHT22;67776;52.012;4.736;2023-07-24T03:48:51;17.35;90.29
78490;DHT22;67776;52.012;4.736;2023-07-24T03:51:16;17.34;90.23
78490;DHT22;67776;52.012;4.736;2023-07-24T03:53:42;17.31;90.79
78490;DHT22;67776;52.012;4.736;2023-07-24T03:56:07;17.39;90.43
78490;DHT22;67776;52.012;4.736;2023-07-24T03:58:33;17.45;90.17
78490;DHT22;67776;52.012;4.736;2023-07-24T04:00:58;17.53;89.76
78490;DHT22;67776;52.012;4.736;2023-07-24T04:03:24;17.55;89.61
78490;DHT22;67776;52.012;4.736;2023-07-24T04:05:49;17.53;89.38
78490;DHT22;67776;52.012;4.736;2023-07-24T04:08:14;17.43;90.64
78490;DHT22;67776;52.012;4.736;2023-07-24T04:10:40;17.42;90.16
78490;DHT22;67776;52.012;4.736;2023-07-24T04:13:05;17.52;89.39
78490;DHT22;67776;52.012;4.736;2023-07-24T04:15:31;17.51;89.70
78490;DHT22;67776;52.012;4.736;2023-07-24T04:17:56;17.49;89.00
78490;DHT22;67776;52.012;4.736;2023-07-24T04:20:21;17.52;89.11
78490;DHT22;67776;52.012;4.736;2023-07-24T04:22:47;17.55;89.09
78490;DHT22;67776;52.012;4.736;2023-07-24T04:25:12;17.36;89.66
78490;DHT22;67776;52.012;4.736;2023-07-24T04:27:37;17.43;89.17
78490;DHT22;67776;52.012;4.736;2023-07-24T04:30:03;17.52;88.95
78490;DHT22;67776;52.012;4.736;2023-07-24T04:32:28;17.55;88.29
78490;DHT22;67776;52.012;4.736;2023-07-24T04:34:54;17.56;88.39
78490;DHT22;67776;52.012;4.736;2023-07-24T04:37:19;17.46;89.68
78490;DHT22;67776;52.012;4.736;2023-07-24T04:39:44;17.55;87.86
78490;DHT22;67776;52.012;4.736;2023-07-24T04:42:10;17.36;89.26
78490;DHT22;67776;52.012;4.736;2023-07-24T04:44:35;17.42;89.11
78490;DHT22;67776;52.012;4.736;2023-07-24T04:47:01;17.39;89.05
78490;DHT22;67776;52.012;4.736;2023-07-24T04:49:29;17.51;87.96
78490;DHT22;67776;52.012;4.736;2023-07-24T04:51:55;17.59;88.18
78490;DHT22;67776;52.012;4.736;2023-07-24T04:54:21;17.63;87.94
78490;DHT22;67776;52.012;4.736;2023-07-24T04:56:46;17.58;88.76
78490;DHT22;67776;52.012;4.736;2023-07-24T04:59:12;17.65;87.20
78490;DHT22;67776;52.012;4.736;2023-07-24T05:01:37;17.72;86.93
78490;DHT22;67776;52.012;4.736;2023-07-24T05:04:03;17.73;87.35
78490;DHT22;67776;52.012;4.736;2023-07-24T05:06:28;17.68;85.68
78490;DHT22;67776;52.012;4.736;2023-07-24T05:08:54;17.75;85.19
78490;DHT22;67776;52.012;4.736;2023-07-24T05:11:19;17.68;85.14
78490;DHT22;67776;52.012;4.736;2023-07-24T05:13:44;17.66;85.36
78490;DHT22;67776;52.012;4.736;2023-07-24T05:16:10;17.70;85.66
78490;DHT22;67776;52.012;4.736;2023-07-24T05:18:35;17.66;86.14
78490;DHT22;67776;52.012;4.736;2023-07-24T05:21:01;17.63;85.31
78490;DHT22;67776;52.012;4.736;2023-07-24T05:23:26;17.62;85.50
78490;DHT22;67776;52.012;4.736;2023-07-24T05:25:58;17.70;83.69
78490;DHT22;67776;52.012;4.736;2023-07-24T05:28:27;17.69;83.86
78490;DHT22;67776;52.012;4.736;2023-07-24T05:30:53;17.49;84.33
78490;DHT22;67776;52.012;4.736;2023-07-24T05:33:19;17.56;83.75
78490;DHT22;67776;52.012;4.736;2023-07-24T05:35:44;17.51;83.88
78490;DHT22;67776;52.012;4.736;2023-07-24T05:38:10;17.43;85.30
78490;DHT22;67776;52.012;4.736;2023-07-24T05:40:35;17.35;85.12
78490;DHT22;67776;52.012;4.736;2023-07-24T05:43:01;17.39;84.87
78490;DHT22;67776;52.012;4.736;2023-07-24T05:45:27;17.43;84.68
78490;DHT22;67776;52.012;4.736;2023-07-24T05:47:53;17.56;83.88
78490;DHT22;67776;52.012;4.736;2023-07-24T05:50:18;17.63;83.76
78490;DHT22;67776;52.012;4.736;2023-07-24T05:52:44;17.72;82.55
78490;DHT22;67776;52.012;4.736;2023-07-24T05:55:10;17.73;82.99
78490;DHT22;67776;52.012;4.736;2023-07-24T05:57:36;17.76;83.06
78490;DHT22;67776;52.012;4.736;2023-07-24T06:00:03;17.78;82.50
78490;DHT22;67776;52.012;4.736;2023-07-24T06:02:59;17.70;83.79
78490;DHT22;67776;52.012;4.736;2023-07-24T06:05:25;17.85;82.63
78490;DHT22;67776;52.012;4.736;2023-07-24T06:07:50;17.79;83.44
78490;DHT22;67776;52.012;4.736;2023-07-24T06:10:16;17.87;82.84
78490;DHT22;67776;52.012;4.736;2023-07-24T06:12:41;17.96;83.58
78490;DHT22;67776;52.012;4.736;2023-07-24T06:15:07;18.10;81.47
78490;DHT22;67776;52.012;4.736;2023-07-24T06:17:32;18.14;81.91
78490;DHT22;67776;52.012;4.736;2023-07-24T06:19:58;18.31;81.59
78490;DHT22;67776;52.012;4.736;2023-07-24T06:22:23;18.38;80.97
78490;DHT22;67776;52.012;4.736;2023-07-24T06:24:49;18.35;81.65
78490;DHT22;67776;52.012;4.736;2023-07-24T06:27:15;18.17;83.53
78490;DHT22;67776;52.012;4.736;2023-07-24T06:29:40;18.21;81.76
78490;DHT22;67776;52.012;4.736;2023-07-24T06:32:06;18.08;82.75
78490;DHT22;67776;52.012;4.736;2023-07-24T06:34:32;18.31;81.79
78490;DHT22;67776;52.012;4.736;2023-07-24T06:36:58;18.51;82.06
78490;DHT22;67776;52.012;4.736;2023-07-24T06:39:23;18.72;81.84
78490;DHT22;67776;52.012;4.736;2023-07-24T06:41:48;18.83;81.51
78490;DHT22;67776;52.012;4.736;2023-07-24T06:44:16;18.76;81.14
78490;DHT22;67776;52.012;4.736;2023-07-24T06:46:41;18.52;82.13
78490;DHT22;67776;52.012;4.736;2023-07-24T06:49:06;18.65;80.28
78490;DHT22;67776;52.012;4.736;2023-07-24T06:51:32;18.58;80.12
78490;DHT22;67776;52.012;4.736;2023-07-24T06:53:57;18.63;81.41
78490;DHT22;67776;52.012;4.736;2023-07-24T06:56:22;18.70;80.15
78490;DHT22;67776;52.012;4.736;2023-07-24T06:58:48;18.61;81.26
78490;DHT22;67776;52.012;4.736;2023-07-24T07:01:13;18.52;82.72
78490;DHT22;67776;52.012;4.736;2023-07-24T07:03:39;18.55;80.45
78490;DHT22;67776;52.012;4.736;2023-07-24T07:06:07;18.52;80.88
78490;DHT22;67776;52.012;4.736;2023-07-24T07:08:34;18.55;81.37
78490;DHT22;67776;52.012;4.736;2023-07-24T07:11:00;18.73;80.82
78490;DHT22;67776;52.012;4.736;2023-07-24T07:13:26;18.97;80.99
78490;DHT22;67776;52.012;4.736;2023-07-24T07:15:51;19.23;80.16
78490;DHT22;67776;52.012;4.736;2023-07-24T07:18:19;19.17;80.30
78490;DHT22;67776;52.012;4.736;2023-07-24T07:20:46;19.23;79.01
78490;DHT22;67776;52.012;4.736;2023-07-24T07:23:12;19.28;78.35
78490;DHT22;67776;52.012;4.736;2023-07-24T07:25:37;19.24;78.18
78490;DHT22;67776;52.012;4.736;2023-07-24T07:28:02;19.44;79.12
78490;DHT22;67776;52.012;4.736;2023-07-24T07:30:31;19.27;81.35
78490;DHT22;67776;52.012;4.736;2023-07-24T07:32:56;19.34;81.64
78490;DHT22;67776;52.012;4.736;2023-07-24T07:35:22;19.13;77.94
78490;DHT22;67776;52.012;4.736;2023-07-24T07:37:47;19.03;79.85
78490;DHT22;67776;52.012;4.736;2023-07-24T07:40:16;19.08;79.47
78490;DHT22;67776;52.012;4.736;2023-07-24T07:42:41;19.30;80.43
78490;DHT22;67776;52.012;4.736;2023-07-24T07:45:07;19.52;79.90
78490;DHT22;67776;52.012;4.736;2023-07-24T07:47:32;19.54;80.14
78490;DHT22;67776;52.012;4.736;2023-07-24T07:49:58;19.39;81.21
78490;DHT22;67776;52.012;4.736;2023-07-24T07:52:23;19.35;80.54
78490;DHT22;67776;52.012;4.736;2023-07-24T07:54:48;19.44;81.33
78490;DHT22;67776;52.012;4.736;2023-07-24T07:57:14;19.42;82.53
78490;DHT22;67776;52.012;4.736;2023-07-24T07:59:40;19.28;81.41
78490;DHT22;67776;52.012;4.736;2023-07-24T08:02:06;19.35;82.21
78490;DHT22;67776;52.012;4.736;2023-07-24T08:04:31;19.17;82.50
78490;DHT22;67776;52.012;4.736;2023-07-24T08:06:56;19.10;82.22
78490;DHT22;67776;52.012;4.736;2023-07-24T08:09:22;19.31;82.22
78490;DHT22;67776;52.012;4.736;2023-07-24T08:11:49;19.34;81.87
78490;DHT22;67776;52.012;4.736;2023-07-24T08:14:15;19.63;81.76
78490;DHT22;67776;52.012;4.736;2023-07-24T08:16:40;19.48;81.18
78490;DHT22;67776;52.012;4.736;2023-07-24T08:19:05;19.72;80.78
78490;DHT22;67776;52.012;4.736;2023-07-24T08:21:31;19.69;81.10
78490;DHT22;67776;52.012;4.736;2023-07-24T08:23:56;19.82;80.22
78490;DHT22;67776;52.012;4.736;2023-07-24T08:26:22;19.83;81.65
78490;DHT22;67776;52.012;4.736;2023-07-24T08:28:49;19.85;81.39
78490;DHT22;67776;52.012;4.736;2023-07-24T08:31:15;19.83;80.62
78490;DHT22;67776;52.012;4.736;2023-07-24T08:33:40;20.06;77.92
78490;DHT22;67776;52.012;4.736;2023-07-24T08:36:07;20.17;80.49
78490;DHT22;67776;52.012;4.736;2023-07-24T08:38:33;20.09;79.88
78490;DHT22;67776;52.012;4.736;2023-07-24T08:41:10;20.21;78.46
78490;DHT22;67776;52.012;4.736;2023-07-24T08:43:37;20.28;78.07
78490;DHT22;67776;52.012;4.736;2023-07-24T08:46:12;20.34;78.44
78490;DHT22;67776;52.012;4.736;2023-07-24T08:48:41;20.30;80.09
78490;DHT22;67776;52.012;4.736;2023-07-24T08:51:12;20.18;77.26
78490;DHT22;67776;52.012;4.736;2023-07-24T08:53:39;20.13;77.97
78490;DHT22;67776;52.012;4.736;2023-07-24T08:56:07;20.10;78.66
78490;DHT22;67776;52.012;4.736;2023-07-24T08:58:33;20.21;78.08
78490;DHT22;67776;52.012;4.736;2023-07-24T09:01:00;19.80;78.51
78490;DHT22;67776;52.012;4.736;2023-07-24T09:03:26;19.61;78.95
78490;DHT22;67776;52.012;4.736;2023-07-24T09:05:52;19.32;79.34
78490;DHT22;67776;52.012;4.736;2023-07-24T09:08:30;19.28;80.03
78490;DHT22;67776;52.012;4.736;2023-07-24T09:10:56;19.35;80.43
78490;DHT22;67776;52.012;4.736;2023-07-24T09:13:22;19.13;80.69
78490;DHT22;67776;52.012;4.736;2023-07-24T09:15:47;19.16;81.79
78490;DHT22;67776;52.012;4.736;2023-07-24T09:18:15;19.28;81.42
78490;DHT22;67776;52.012;4.736;2023-07-24T09:20:46;19.96;80.32
78490;DHT22;67776;52.012;4.736;2023-07-24T09:23:13;20.25;77.15
78490;DHT22;67776;52.012;4.736;2023-07-24T09:25:41;20.38;77.09
78490;DHT22;67776;52.012;4.736;2023-07-24T09:28:15;19.99;78.19
78490;DHT22;67776;52.012;4.736;2023-07-24T09:30:41;20.05;79.23
78490;DHT22;67776;52.012;4.736;2023-07-24T09:33:07;20.68;76.54
78490;DHT22;67776;52.012;4.736;2023-07-24T09:35:33;21.41;74.01
78490;DHT22;67776;52.012;4.736;2023-07-24T09:38:07;22.03;70.91
78490;DHT22;67776;52.012;4.736;2023-07-24T09:40:45;22.21;72.10
78490;DHT22;67776;52.012;4.736;2023-07-24T09:45:47;21.57;74.81
78490;DHT22;67776;52.012;4.736;2023-07-24T09:48:16;21.63;73.58
78490;DHT22;67776;52.012;4.736;2023-07-24T09:50:43;21.65;72.51
78490;DHT22;67776;52.012;4.736;2023-07-24T09:53:33;22.40;68.74
78490;DHT22;67776;52.012;4.736;2023-07-24T09:56:08;21.85;69.68
78490;DHT22;67776;52.012;4.736;2023-07-24T09:58:39;21.07;73.46
78490;DHT22;67776;52.012;4.736;2023-07-24T10:01:07;20.99;73.22
78490;DHT22;67776;52.012;4.736;2023-07-24T10:03:59;21.41;72.22
78490;DHT22;67776;52.012;4.736;2023-07-24T10:06:24;21.52;71.40
78490;DHT22;67776;52.012;4.736;2023-07-24T10:08:52;21.75;70.82
78490;DHT22;67776;52.012;4.736;2023-07-24T10:11:18;22.29;70.91
78490;DHT22;67776;52.012;4.736;2023-07-24T10:13:44;22.84;72.25
78490;DHT22;67776;52.012;4.736;2023-07-24T10:16:10;21.96;74.59
78490;DHT22;67776;52.012;4.736;2023-07-24T10:18:42;21.14;73.24
78490;DHT22;67776;52.012;4.736;2023-07-24T10:21:11;21.04;72.48
78490;DHT22;67776;52.012;4.736;2023-07-24T10:23:41;20.96;73.38
78490;DHT22;67776;52.012;4.736;2023-07-24T10:26:07;20.61;74.23
78490;DHT22;67776;52.012;4.736;2023-07-24T10:28:35;20.31;76.12
78490;DHT22;67776;52.012;4.736;2023-07-24T10:31:24;20.38;75.39
78490;DHT22;67776;52.012;4.736;2023-07-24T10:33:52;20.67;74.84
78490;DHT22;67776;52.012;4.736;2023-07-24T10:36:19;20.85;73.51
78490;DHT22;67776;52.012;4.736;2023-07-24T10:38:46;20.89;75.76
78490;DHT22;67776;52.012;4.736;2023-07-24T10:41:15;22.02;72.17
78490;DHT22;67776;52.012;4.736;2023-07-24T10:43:42;21.88;70.62
78490;DHT22;67776;52.012;4.736;2023-07-24T10:46:07;21.20;74.77
78490;DHT22;67776;52.012;4.736;2023-07-24T10:48:33;21.69;71.46
78490;DHT22;67776;52.012;4.736;2023-07-24T10:51:08;22.20;68.35
78490;DHT22;67776;52.012;4.736;2023-07-24T10:53:46;21.68;68.20
78490;DHT22;67776;52.012;4.736;2023-07-24T10:56:13;22.39;68.29
78490;DHT22;67776;52.012;4.736;2023-07-24T10:58:38;23.20;66.68
78490;DHT22;67776;52.012;4.736;2023-07-24T11:01:05;23.55;65.05
78490;DHT22;67776;52.012;4.736;2023-07-24T11:03:31;22.91;67.98
78490;DHT22;67776;52.012;4.736;2023-07-24T11:05:58;23.62;66.94
78490;DHT22;67776;52.012;4.736;2023-07-24T11:08:24;22.60;66.68
78490;DHT22;67776;52.012;4.736;2023-07-24T11:10:53;22.84;67.30
78490;DHT22;67776;52.012;4.736;2023-07-24T11:13:20;22.44;66.65
78490;DHT22;67776;52.012;4.736;2023-07-24T11:15:47;22.72;66.44
78490;DHT22;67776;52.012;4.736;2023-07-24T11:18:16;22.37;68.59
78490;DHT22;67776;52.012;4.736;2023-07-24T11:20:48;23.16;68.20
78490;DHT22;67776;52.012;4.736;2023-07-24T11:23:14;23.65;65.77
78490;DHT22;67776;52.012;4.736;2023-07-24T11:25:40;23.19;65.75
78490;DHT22;67776;52.012;4.736;2023-07-24T11:28:06;22.61;71.89
78490;DHT22;67776;52.012;4.736;2023-07-24T11:30:32;22.50;69.94
78490;DHT22;67776;52.012;4.736;2023-07-24T11:33:00;21.72;72.01
78490;DHT22;67776;52.012;4.736;2023-07-24T11:35:26;21.07;74.87
78490;DHT22;67776;52.012;4.736;2023-07-24T11:37:52;21.04;75.59
78490;DHT22;67776;52.012;4.736;2023-07-24T11:40:17;21.31;74.65
78490;DHT22;67776;52.012;4.736;2023-07-24T11:42:46;21.28;73.95
78490;DHT22;67776;52.012;4.736;2023-07-24T11:45:12;21.10;74.94
78490;DHT22;67776;52.012;4.736;2023-07-24T11:47:45;21.00;73.72
78490;DHT22;67776;52.012;4.736;2023-07-24T11:50:11;21.08;72.65
78490;DHT22;67776;52.012;4.736;2023-07-24T11:52:38;21.16;71.50
78490;DHT22;67776;52.012;4.736;2023-07-24T11:55:05;20.82;72.49
78490;DHT22;67776;52.012;4.736;2023-07-24T11:57:31;20.80;73.47
78490;DHT22;67776;52.012;4.736;2023-07-24T11:59:56;20.80;73.69
78490;DHT22;67776;52.012;4.736;2023-07-24T12:02:28;20.95;72.43
78490;DHT22;67776;52.012;4.736;2023-07-24T12:04:57;20.72;73.23
78490;DHT22;67776;52.012;4.736;2023-07-24T12:07:31;20.72;73.22
78490;DHT22;67776;52.012;4.736;2023-07-24T12:09:57;20.92;72.16
78490;DHT22;67776;52.012;4.736;2023-07-24T12:12:22;21.00;72.26
78490;DHT22;67776;52.012;4.736;2023-07-24T12:14:50;21.14;72.50
78490;DHT22;67776;52.012;4.736;2023-07-24T12:17:18;21.37;70.95
78490;DHT22;67776;52.012;4.736;2023-07-24T12:19:45;21.28;70.52
78490;DHT22;67776;52.012;4.736;2023-07-24T12:22:10;21.55;69.32
78490;DHT22;67776;52.012;4.736;2023-07-24T12:24:36;21.51;70.24
78490;DHT22;67776;52.012;4.736;2023-07-24T12:27:01;21.58;69.12
78490;DHT22;67776;52.012;4.736;2023-07-24T12:29:26;21.14;70.93
78490;DHT22;67776;52.012;4.736;2023-07-24T12:31:55;21.30;71.11
78490;DHT22;67776;52.012;4.736;2023-07-24T12:34:20;21.22;71.95
78490;DHT22;67776;52.012;4.736;2023-07-24T12:36:46;21.22;73.71
78490;DHT22;67776;52.012;4.736;2023-07-24T12:39:12;21.88;72.46
78490;DHT22;67776;52.012;4.736;2023-07-24T12:41:41;21.81;71.60
78490;DHT22;67776;52.012;4.736;2023-07-24T12:44:07;21.65;70.09
78490;DHT22;67776;52.012;4.736;2023-07-24T12:46:32;21.65;70.43
78490;DHT22;67776;52.012;4.736;2023-07-24T12:48:57;22.41;69.11
78490;DHT22;67776;52.012;4.736;2023-07-24T12:51:23;24.10;63.92
78490;DHT22;67776;52.012;4.736;2023-07-24T12:53:48;23.88;65.82
78490;DHT22;67776;52.012;4.736;2023-07-24T12:56:13;23.28;64.94
78490;DHT22;67776;52.012;4.736;2023-07-24T12:58:39;23.96;65.35
78490;DHT22;67776;52.012;4.736;2023-07-24T13:01:04;23.94;67.31
78490;DHT22;67776;52.012;4.736;2023-07-24T13:03:31;23.70;68.15
78490;DHT22;67776;52.012;4.736;2023-07-24T13:05:57;23.44;68.52
78490;DHT22;67776;52.012;4.736;2023-07-24T13:08:22;23.05;68.28
78490;DHT22;67776;52.012;4.736;2023-07-24T13:10:48;22.57;68.79
78490;DHT22;67776;52.012;4.736;2023-07-24T13:13:14;21.83;71.29
78490;DHT22;67776;52.012;4.736;2023-07-24T13:15:39;21.28;74.32
78490;DHT22;67776;52.012;4.736;2023-07-24T13:18:04;21.06;73.93
78490;DHT22;67776;52.012;4.736;2023-07-24T13:20:30;20.88;75.09
78490;DHT22;67776;52.012;4.736;2023-07-24T13:22:55;20.89;74.58
78490;DHT22;67776;52.012;4.736;2023-07-24T13:25:20;21.43;74.56
78490;DHT22;67776;52.012;4.736;2023-07-24T13:27:46;20.78;74.13
78490;DHT22;67776;52.012;4.736;2023-07-24T13:30:11;21.95;72.49
78490;DHT22;67776;52.012;4.736;2023-07-24T13:32:37;21.99;70.89
78490;DHT22;67776;52.012;4.736;2023-07-24T13:35:02;21.75;71.09
78490;DHT22;67776;52.012;4.736;2023-07-24T13:37:28;21.27;73.87
78490;DHT22;67776;52.012;4.736;2023-07-24T13:39:53;21.04;72.64
78490;DHT22;67776;52.012;4.736;2023-07-24T13:42:18;20.82;73.85
78490;DHT22;67776;52.012;4.736;2023-07-24T13:44:44;20.95;72.46
78490;DHT22;67776;52.012;4.736;2023-07-24T13:47:09;20.86;73.94
78490;DHT22;67776;52.012;4.736;2023-07-24T13:49:34;20.92;73.03
78490;DHT22;67776;52.012;4.736;2023-07-24T13:52:00;21.33;72.03
78490;DHT22;67776;52.012;4.736;2023-07-24T13:54:25;21.55;69.57
78490;DHT22;67776;52.012;4.736;2023-07-24T13:56:52;21.27;73.21
78490;DHT22;67776;52.012;4.736;2023-07-24T13:59:17;21.34;70.23
78490;DHT22;67776;52.012;4.736;2023-07-24T14:01:46;21.43;71.22
78490;DHT22;67776;52.012;4.736;2023-07-24T14:04:11;21.58;69.76
78490;DHT22;67776;52.012;4.736;2023-07-24T14:06:37;21.96;68.11
78490;DHT22;67776;52.012;4.736;2023-07-24T14:09:02;22.92;68.46
78490;DHT22;67776;52.012;4.736;2023-07-24T14:11:28;22.43;67.32
78490;DHT22;67776;52.012;4.736;2023-07-24T14:13:54;22.23;68.96
78490;DHT22;67776;52.012;4.736;2023-07-24T14:16:19;21.72;70.10
78490;DHT22;67776;52.012;4.736;2023-07-24T14:18:45;21.20;72.30
78490;DHT22;67776;52.012;4.736;2023-07-24T14:21:10;20.54;74.08
78490;DHT22;67776;52.012;4.736;2023-07-24T14:23:35;20.96;72.69
78490;DHT22;67776;52.012;4.736;2023-07-24T14:26:01;21.30;71.89
78490;DHT22;67776;52.012;4.736;2023-07-24T14:28:26;22.00;70.12
78490;DHT22;67776;52.012;4.736;2023-07-24T14:30:52;23.92;64.53
78490;DHT22;67776;52.012;4.736;2023-07-24T14:33:17;22.14;68.71
78490;DHT22;67776;52.012;4.736;2023-07-24T14:35:42;22.30;68.14
78490;DHT22;67776;52.012;4.736;2023-07-24T14:38:08;22.67;65.75
78490;DHT22;67776;52.012;4.736;2023-07-24T14:40:33;21.38;70.10
78490;DHT22;67776;52.012;4.736;2023-07-24T14:42:58;20.88;71.72
78490;DHT22;67776;52.012;4.736;2023-07-24T14:45:24;20.28;74.14
78490;DHT22;67776;52.012;4.736;2023-07-24T14:47:51;20.55;72.05
78490;DHT22;67776;52.012;4.736;2023-07-24T14:50:16;20.03;73.95
78490;DHT22;67776;52.012;4.736;2023-07-24T14:52:41;20.03;74.90
78490;DHT22;67776;52.012;4.736;2023-07-24T14:55:08;19.63;75.95
78490;DHT22;67776;52.012;4.736;2023-07-24T14:57:35;19.69;74.87
78490;DHT22;67776;52.012;4.736;2023-07-24T15:00:01;19.58;74.90
78490;DHT22;67776;52.012;4.736;2023-07-24T15:02:26;19.51;76.47
78490;DHT22;67776;52.012;4.736;2023-07-24T15:04:51;19.39;75.03
78490;DHT22;67776;52.012;4.736;2023-07-24T15:07:17;19.68;74.94
78490;DHT22;67776;52.012;4.736;2023-07-24T15:09:42;19.87;75.21
78490;DHT22;67776;52.012;4.736;2023-07-24T15:12:09;19.73;74.74
78490;DHT22;67776;52.012;4.736;2023-07-24T15:14:34;20.43;72.91
78490;DHT22;67776;52.012;4.736;2023-07-24T15:16:59;20.23;76.06
78490;DHT22;67776;52.012;4.736;2023-07-24T15:19:25;19.94;72.65
78490;DHT22;67776;52.012;4.736;2023-07-24T15:21:50;19.93;75.75
78490;DHT22;67776;52.012;4.736;2023-07-24T15:24:15;20.24;72.95
78490;DHT22;67776;52.012;4.736;2023-07-24T15:26:46;19.83;75.14
78490;DHT22;67776;52.012;4.736;2023-07-24T15:29:12;19.79;74.02
78490;DHT22;67776;52.012;4.736;2023-07-24T15:31:40;19.39;75.00